sensor_id;sensor_type;location;lat;lon;timestamp;P1;durP1;ratioP1;P2;durP2;ratioP2
31978;SDS011;18502;43.574;1.276;2022-10-22T00:00:04;5.88;;;2.35;;
31978;SDS011;18502;43.574;1.276;2022-10-22T00:02:35;10.05;;;2.60;;
31978;SDS011;18502;43.574;1.276;2022-10-22T00:05:01;6.15;;;2.63;;
31978;SDS011;18502;43.574;1.276;2022-10-22T00:07:27;10.50;;;2.90;;
31978;SDS011;18502;43.574;1.276;2022-10-22T00:09:52;4.57;;;2.30;;
31978;SDS011;18502;43.574;1.276;2022-10-22T00:12:18;3.40;;;1.90;;
31978;SDS011;18502;43.574;1.276;2022-10-22T00:14:44;4.88;;;2.28;;
31978;SDS011;18502;43.574;1.276;2022-10-22T00:17:10;7.45;;;2.30;;
31978;SDS011;18502;43.574;1.276;2022-10-22T00:19:35;4.72;;;2.00;;
31978;SDS011;18502;43.574;1.276;2022-10-22T00:22:01;3.10;;;1.95;;
31978;SDS011;18502;43.574;1.276;2022-10-22T00:24:30;3.97;;;2.60;;
31978;SDS011;18502;43.574;1.276;2022-10-22T00:26:56;10.45;;;3.00;;
31978;SDS011;18502;43.574;1.276;2022-10-22T00:29:22;5.07;;;2.20;;
31978;SDS011;18502;43.574;1.276;2022-10-22T00:31:48;4.47;;;2.25;;
31978;SDS011;18502;43.574;1.276;2022-10-22T00:34:17;6.25;;;2.75;;
31978;SDS011;18502;43.574;1.276;2022-10-22T00:36:45;5.43;;;2.30;;
31978;SDS011;18502;43.574;1.276;2022-10-22T00:39:13;7.38;;;2.60;;
31978;SDS011;18502;43.574;1.276;2022-10-22T00:41:40;8.95;;;2.53;;
31978;SDS011;18502;43.574;1.276;2022-10-22T00:44:07;4.70;;;2.20;;
31978;SDS011;18502;43.574;1.276;2022-10-22T00:46:52;8.05;;;2.97;;
31978;SDS011;18502;43.574;1.276;2022-10-22T00:49:18;5.32;;;3.13;;
31978;SDS011;18502;43.574;1.276;2022-10-22T00:51:43;7.75;;;2.65;;
31978;SDS011;18502;43.574;1.276;2022-10-22T00:54:09;5.00;;;2.50;;
31978;SDS011;18502;43.574;1.276;2022-10-22T00:56:35;5.40;;;2.80;;
31978;SDS011;18502;43.574;1.276;2022-10-22T00:59:02;6.32;;;2.25;;
31978;SDS011;18502;43.574;1.276;2022-10-22T01:01:29;4.68;;;2.30;;
31978;SDS011;18502;43.574;1.276;2022-10-22T01:03:56;5.85;;;2.38;;
31978;SDS011;18502;43.574;1.276;2022-10-22T01:06:23;9.43;;;3.83;;
31978;SDS011;18502;43.574;1.276;2022-10-22T01:08:55;5.72;;;2.40;;
31978;SDS011;18502;43.574;1.276;2022-10-22T01:23:28;6.35;;;2.63;;
31978;SDS011;18502;43.574;1.276;2022-10-22T01:26:12;24.20;;;11.65;;
31978;SDS011;18502;43.574;1.276;2022-10-22T01:28:44;10.18;;;5.85;;
31978;SDS011;18502;43.574;1.276;2022-10-22T01:31:21;11.83;;;6.43;;
31978;SDS011;18502;43.574;1.276;2022-10-22T01:33:48;8.45;;;3.13;;
31978;SDS011;18502;43.574;1.276;2022-10-22T01:36:17;5.65;;;2.80;;
31978;SDS011;18502;43.574;1.276;2022-10-22T01:38:44;10.10;;;2.58;;
31978;SDS011;18502;43.574;1.276;2022-10-22T01:41:11;10.57;;;3.00;;
31978;SDS011;18502;43.574;1.276;2022-10-22T01:43:37;5.07;;;2.78;;
31978;SDS011;18502;43.574;1.276;2022-10-22T01:46:04;5.57;;;2.80;;
31978;SDS011;18502;43.574;1.276;2022-10-22T02:04:59;4.90;;;2.83;;
31978;SDS011;18502;43.574;1.276;2022-10-22T02:07:39;3.83;;;2.28;;
31978;SDS011;18502;43.574;1.276;2022-10-22T02:10:17;7.13;;;3.63;;
31978;SDS011;18502;43.574;1.276;2022-10-22T02:12:44;4.65;;;2.60;;
31978;SDS011;18502;43.574;1.276;2022-10-22T02:15:13;7.35;;;3.42;;
31978;SDS011;18502;43.574;1.276;2022-10-22T02:17:41;6.45;;;3.28;;
31978;SDS011;18502;43.574;1.276;2022-10-22T02:20:20;5.70;;;2.67;;
31978;SDS011;18502;43.574;1.276;2022-10-22T02:22:55;6.35;;;3.40;;
31978;SDS011;18502;43.574;1.276;2022-10-22T02:25:22;12.15;;;3.10;;
31978;SDS011;18502;43.574;1.276;2022-10-22T02:30:45;6.47;;;3.38;;
31978;SDS011;18502;43.574;1.276;2022-10-22T02:33:20;6.55;;;3.10;;
31978;SDS011;18502;43.574;1.276;2022-10-22T02:35:50;5.72;;;3.08;;
31978;SDS011;18502;43.574;1.276;2022-10-22T02:38:17;5.85;;;2.72;;
31978;SDS011;18502;43.574;1.276;2022-10-22T02:40:44;7.72;;;2.78;;
31978;SDS011;18502;43.574;1.276;2022-10-22T02:43:10;6.72;;;3.05;;
31978;SDS011;18502;43.574;1.276;2022-10-22T02:45:36;8.57;;;3.50;;
31978;SDS011;18502;43.574;1.276;2022-10-22T02:48:02;5.07;;;2.75;;
31978;SDS011;18502;43.574;1.276;2022-10-22T02:50:28;5.30;;;2.90;;
31978;SDS011;18502;43.574;1.276;2022-10-22T02:52:54;6.15;;;3.40;;
31978;SDS011;18502;43.574;1.276;2022-10-22T02:55:19;5.13;;;3.33;;
31978;SDS011;18502;43.574;1.276;2022-10-22T02:57:45;6.70;;;3.42;;
31978;SDS011;18502;43.574;1.276;2022-10-22T03:00:11;7.28;;;3.30;;
31978;SDS011;18502;43.574;1.276;2022-10-22T03:02:37;4.90;;;3.15;;
31978;SDS011;18502;43.574;1.276;2022-10-22T03:05:03;5.85;;;2.90;;
31978;SDS011;18502;43.574;1.276;2022-10-22T03:07:29;4.35;;;3.08;;
31978;SDS011;18502;43.574;1.276;2022-10-22T03:09:55;6.32;;;3.08;;
31978;SDS011;18502;43.574;1.276;2022-10-22T03:12:20;6.80;;;3.53;;
31978;SDS011;18502;43.574;1.276;2022-10-22T03:14:46;8.20;;;3.85;;
31978;SDS011;18502;43.574;1.276;2022-10-22T03:17:12;8.45;;;3.22;;
31978;SDS011;18502;43.574;1.276;2022-10-22T03:19:37;9.68;;;3.63;;
31978;SDS011;18502;43.574;1.276;2022-10-22T03:22:25;4.93;;;3.30;;
31978;SDS011;18502;43.574;1.276;2022-10-22T03:24:52;11.65;;;4.78;;
31978;SDS011;18502;43.574;1.276;2022-10-22T03:27:22;9.98;;;4.80;;
31978;SDS011;18502;43.574;1.276;2022-10-22T03:29:49;14.98;;;4.15;;
31978;SDS011;18502;43.574;1.276;2022-10-22T03:32:15;7.63;;;4.00;;
31978;SDS011;18502;43.574;1.276;2022-10-22T03:34:41;6.40;;;3.55;;
31978;SDS011;18502;43.574;1.276;2022-10-22T03:37:07;8.38;;;3.22;;
31978;SDS011;18502;43.574;1.276;2022-10-22T03:39:33;9.30;;;4.15;;
31978;SDS011;18502;43.574;1.276;2022-10-22T03:42:00;6.22;;;3.60;;
31978;SDS011;18502;43.574;1.276;2022-10-22T03:44:27;7.03;;;3.75;;
31978;SDS011;18502;43.574;1.276;2022-10-22T03:46:53;8.50;;;4.47;;
31978;SDS011;18502;43.574;1.276;2022-10-22T03:49:19;7.05;;;3.95;;
31978;SDS011;18502;43.574;1.276;2022-10-22T03:51:45;9.68;;;4.97;;
31978;SDS011;18502;43.574;1.276;2022-10-22T03:54:10;7.60;;;3.97;;
31978;SDS011;18502;43.574;1.276;2022-10-22T03:56:36;11.15;;;4.38;;
31978;SDS011;18502;43.574;1.276;2022-10-22T03:59:02;10.57;;;4.15;;
31978;SDS011;18502;43.574;1.276;2022-10-22T04:01:28;7.38;;;3.75;;
31978;SDS011;18502;43.574;1.276;2022-10-22T04:03:55;14.35;;;4.25;;
31978;SDS011;18502;43.574;1.276;2022-10-22T04:06:21;7.68;;;3.63;;
31978;SDS011;18502;43.574;1.276;2022-10-22T04:08:47;10.18;;;4.68;;
31978;SDS011;18502;43.574;1.276;2022-10-22T04:11:13;10.93;;;4.65;;
31978;SDS011;18502;43.574;1.276;2022-10-22T04:13:40;10.60;;;4.47;;
31978;SDS011;18502;43.574;1.276;2022-10-22T04:16:19;9.60;;;4.72;;
31978;SDS011;18502;43.574;1.276;2022-10-22T04:18:46;10.30;;;4.13;;
31978;SDS011;18502;43.574;1.276;2022-10-22T04:21:13;8.00;;;4.43;;
31978;SDS011;18502;43.574;1.276;2022-10-22T04:23:47;7.90;;;4.15;;
31978;SDS011;18502;43.574;1.276;2022-10-22T04:26:15;12.20;;;4.53;;
31978;SDS011;18502;43.574;1.276;2022-10-22T04:28:43;8.88;;;4.03;;
31978;SDS011;18502;43.574;1.276;2022-10-22T04:31:10;7.00;;;4.28;;
31978;SDS011;18502;43.574;1.276;2022-10-22T04:33:40;9.45;;;4.55;;
31978;SDS011;18502;43.574;1.276;2022-10-22T04:36:10;10.57;;;4.95;;
31978;SDS011;18502;43.574;1.276;2022-10-22T04:38:41;8.32;;;4.82;;
31978;SDS011;18502;43.574;1.276;2022-10-22T04:41:15;11.65;;;6.63;;
31978;SDS011;18502;43.574;1.276;2022-10-22T04:43:42;17.25;;;6.90;;
31978;SDS011;18502;43.574;1.276;2022-10-22T04:46:09;12.30;;;6.57;;
31978;SDS011;18502;43.574;1.276;2022-10-22T04:48:39;11.65;;;7.28;;
31978;SDS011;18502;43.574;1.276;2022-10-22T04:51:06;8.85;;;5.47;;
31978;SDS011;18502;43.574;1.276;2022-10-22T04:53:34;10.82;;;6.60;;
31978;SDS011;18502;43.574;1.276;2022-10-22T04:58:33;11.27;;;6.95;;
31978;SDS011;18502;43.574;1.276;2022-10-22T05:00:59;9.65;;;6.20;;
31978;SDS011;18502;43.574;1.276;2022-10-22T05:03:25;11.13;;;5.88;;
31978;SDS011;18502;43.574;1.276;2022-10-22T05:05:50;10.45;;;5.95;;
31978;SDS011;18502;43.574;1.276;2022-10-22T05:08:16;11.27;;;5.40;;
31978;SDS011;18502;43.574;1.276;2022-10-22T05:10:42;14.32;;;5.50;;
31978;SDS011;18502;43.574;1.276;2022-10-22T05:13:07;7.65;;;4.93;;
31978;SDS011;18502;43.574;1.276;2022-10-22T05:15:33;12.93;;;5.95;;
31978;SDS011;18502;43.574;1.276;2022-10-22T05:17:59;6.97;;;4.75;;
31978;SDS011;18502;43.574;1.276;2022-10-22T05:20:24;7.57;;;4.75;;
31978;SDS011;18502;43.574;1.276;2022-10-22T05:22:50;6.75;;;4.63;;
31978;SDS011;18502;43.574;1.276;2022-10-22T05:25:15;7.80;;;4.50;;
31978;SDS011;18502;43.574;1.276;2022-10-22T05:27:41;8.75;;;4.63;;
31978;SDS011;18502;43.574;1.276;2022-10-22T05:30:07;8.77;;;4.88;;
31978;SDS011;18502;43.574;1.276;2022-10-22T05:32:33;9.45;;;4.35;;
31978;SDS011;18502;43.574;1.276;2022-10-22T05:34:59;8.63;;;4.85;;
31978;SDS011;18502;43.574;1.276;2022-10-22T05:37:25;11.65;;;5.30;;
31978;SDS011;18502;43.574;1.276;2022-10-22T05:39:51;11.02;;;5.70;;
31978;SDS011;18502;43.574;1.276;2022-10-22T05:42:16;10.95;;;5.47;;
31978;SDS011;18502;43.574;1.276;2022-10-22T05:44:42;11.20;;;6.65;;
31978;SDS011;18502;43.574;1.276;2022-10-22T05:47:07;11.75;;;5.65;;
31978;SDS011;18502;43.574;1.276;2022-10-22T05:49:34;12.00;;;6.07;;
31978;SDS011;18502;43.574;1.276;2022-10-22T05:51:59;18.13;;;7.53;;
31978;SDS011;18502;43.574;1.276;2022-10-22T05:54:25;12.05;;;6.40;;
31978;SDS011;18502;43.574;1.276;2022-10-22T05:56:51;9.80;;;5.85;;
31978;SDS011;18502;43.574;1.276;2022-10-22T05:59:17;11.63;;;5.85;;
31978;SDS011;18502;43.574;1.276;2022-10-22T06:01:42;10.60;;;6.03;;
31978;SDS011;18502;43.574;1.276;2022-10-22T06:04:09;17.13;;;6.78;;
31978;SDS011;18502;43.574;1.276;2022-10-22T06:11:42;23.42;;;6.45;;
31978;SDS011;18502;43.574;1.276;2022-10-22T06:14:09;11.35;;;5.55;;
31978;SDS011;18502;43.574;1.276;2022-10-22T06:16:35;10.20;;;5.70;;
31978;SDS011;18502;43.574;1.276;2022-10-22T06:19:01;8.68;;;4.97;;
31978;SDS011;18502;43.574;1.276;2022-10-22T06:21:28;5.65;;;3.63;;
31978;SDS011;18502;43.574;1.276;2022-10-22T06:23:55;7.25;;;3.90;;
31978;SDS011;18502;43.574;1.276;2022-10-22T06:26:21;7.80;;;4.13;;
31978;SDS011;18502;43.574;1.276;2022-10-22T06:28:47;8.55;;;3.92;;
31978;SDS011;18502;43.574;1.276;2022-10-22T06:31:13;12.30;;;4.55;;
31978;SDS011;18502;43.574;1.276;2022-10-22T06:33:38;8.05;;;4.05;;
31978;SDS011;18502;43.574;1.276;2022-10-22T06:36:11;9.73;;;4.00;;
31978;SDS011;18502;43.574;1.276;2022-10-22T06:38:38;6.53;;;4.00;;
31978;SDS011;18502;43.574;1.276;2022-10-22T06:41:09;6.38;;;4.10;;
31978;SDS011;18502;43.574;1.276;2022-10-22T06:43:36;5.18;;;4.07;;
31978;SDS011;18502;43.574;1.276;2022-10-22T06:46:03;6.10;;;3.70;;
31978;SDS011;18502;43.574;1.276;2022-10-22T06:48:31;9.73;;;4.63;;
31978;SDS011;18502;43.574;1.276;2022-10-22T06:51:04;11.18;;;5.13;;
31978;SDS011;18502;43.574;1.276;2022-10-22T06:53:32;8.43;;;4.80;;
31978;SDS011;18502;43.574;1.276;2022-10-22T06:55:58;9.00;;;5.10;;
31978;SDS011;18502;43.574;1.276;2022-10-22T06:58:23;8.50;;;4.03;;
31978;SDS011;18502;43.574;1.276;2022-10-22T07:00:49;5.88;;;3.92;;
31978;SDS011;18502;43.574;1.276;2022-10-22T07:03:32;10.00;;;4.93;;
31978;SDS011;18502;43.574;1.276;2022-10-22T07:06:01;14.35;;;4.68;;
31978;SDS011;18502;43.574;1.276;2022-10-22T07:08:28;8.82;;;4.32;;
31978;SDS011;18502;43.574;1.276;2022-10-22T07:10:54;10.80;;;4.80;;
31978;SDS011;18502;43.574;1.276;2022-10-22T07:13:22;9.90;;;4.80;;
31978;SDS011;18502;43.574;1.276;2022-10-22T07:15:52;9.18;;;4.97;;
31978;SDS011;18502;43.574;1.276;2022-10-22T07:18:19;9.60;;;5.63;;
31978;SDS011;18502;43.574;1.276;2022-10-22T07:20:46;8.18;;;5.20;;
31978;SDS011;18502;43.574;1.276;2022-10-22T07:23:12;6.45;;;4.55;;
31978;SDS011;18502;43.574;1.276;2022-10-22T07:25:39;6.20;;;4.15;;
31978;SDS011;18502;43.574;1.276;2022-10-22T07:28:05;8.32;;;4.78;;
31978;SDS011;18502;43.574;1.276;2022-10-22T07:30:31;8.52;;;4.63;;
31978;SDS011;18502;43.574;1.276;2022-10-22T07:32:57;9.38;;;4.25;;
31978;SDS011;18502;43.574;1.276;2022-10-22T07:35:22;7.80;;;4.72;;
31978;SDS011;18502;43.574;1.276;2022-10-22T07:37:48;8.00;;;5.07;;
31978;SDS011;18502;43.574;1.276;2022-10-22T07:40:13;9.85;;;5.43;;
31978;SDS011;18502;43.574;1.276;2022-10-22T07:42:39;7.68;;;4.38;;
31978;SDS011;18502;43.574;1.276;2022-10-22T07:45:05;15.75;;;5.25;;
31978;SDS011;18502;43.574;1.276;2022-10-22T07:47:31;8.07;;;4.20;;
31978;SDS011;18502;43.574;1.276;2022-10-22T07:49:57;9.95;;;4.65;;
31978;SDS011;18502;43.574;1.276;2022-10-22T07:52:23;8.30;;;4.90;;
31978;SDS011;18502;43.574;1.276;2022-10-22T07:54:48;8.00;;;4.25;;
31978;SDS011;18502;43.574;1.276;2022-10-22T07:57:14;9.38;;;4.13;;
31978;SDS011;18502;43.574;1.276;2022-10-22T07:59:40;6.93;;;3.72;;
31978;SDS011;18502;43.574;1.276;2022-10-22T08:02:06;9.80;;;4.50;;
31978;SDS011;18502;43.574;1.276;2022-10-22T08:04:31;6.80;;;3.72;;
31978;SDS011;18502;43.574;1.276;2022-10-22T08:06:57;7.68;;;4.13;;
31978;SDS011;18502;43.574;1.276;2022-10-22T08:09:22;12.18;;;4.00;;
31978;SDS011;18502;43.574;1.276;2022-10-22T08:11:49;6.55;;;4.10;;
31978;SDS011;18502;43.574;1.276;2022-10-22T08:14:14;9.60;;;4.35;;
31978;SDS011;18502;43.574;1.276;2022-10-22T08:16:40;9.88;;;4.00;;
31978;SDS011;18502;43.574;1.276;2022-10-22T08:19:06;11.02;;;3.63;;
31978;SDS011;18502;43.574;1.276;2022-10-22T08:21:31;10.15;;;3.67;;
31978;SDS011;18502;43.574;1.276;2022-10-22T08:23:57;7.90;;;3.45;;
31978;SDS011;18502;43.574;1.276;2022-10-22T08:26:23;5.78;;;2.88;;
31978;SDS011;18502;43.574;1.276;2022-10-22T08:28:48;7.35;;;3.00;;
31978;SDS011;18502;43.574;1.276;2022-10-22T08:31:14;10.88;;;5.55;;
31978;SDS011;18502;43.574;1.276;2022-10-22T08:33:40;9.50;;;3.50;;
31978;SDS011;18502;43.574;1.276;2022-10-22T08:36:06;12.65;;;3.75;;
31978;SDS011;18502;43.574;1.276;2022-10-22T08:38:32;8.07;;;3.70;;
31978;SDS011;18502;43.574;1.276;2022-10-22T08:41:18;11.00;;;3.38;;
31978;SDS011;18502;43.574;1.276;2022-10-22T08:47:03;7.53;;;3.15;;
31978;SDS011;18502;43.574;1.276;2022-10-22T08:49:38;8.35;;;2.95;;
31978;SDS011;18502;43.574;1.276;2022-10-22T08:52:13;10.07;;;2.67;;
31978;SDS011;18502;43.574;1.276;2022-10-22T09:08:12;6.28;;;2.47;;
31978;SDS011;18502;43.574;1.276;2022-10-22T09:10:45;6.80;;;2.20;;
31978;SDS011;18502;43.574;1.276;2022-10-22T09:13:15;4.95;;;2.10;;
31978;SDS011;18502;43.574;1.276;2022-10-22T09:15:54;5.78;;;2.22;;
31978;SDS011;18502;43.574;1.276;2022-10-22T09:18:34;6.82;;;2.60;;
31978;SDS011;18502;43.574;1.276;2022-10-22T09:21:11;4.13;;;2.05;;
31978;SDS011;18502;43.574;1.276;2022-10-22T09:26:30;5.28;;;1.77;;
31978;SDS011;18502;43.574;1.276;2022-10-22T09:29:00;2.97;;;1.98;;
31978;SDS011;18502;43.574;1.276;2022-10-22T09:31:26;5.65;;;2.40;;
31978;SDS011;18502;43.574;1.276;2022-10-22T09:33:55;5.88;;;2.03;;
31978;SDS011;18502;43.574;1.276;2022-10-22T09:36:23;9.23;;;2.20;;
31978;SDS011;18502;43.574;1.276;2022-10-22T09:38:50;5.93;;;2.00;;
31978;SDS011;18502;43.574;1.276;2022-10-22T09:41:22;7.15;;;2.15;;
31978;SDS011;18502;43.574;1.276;2022-10-22T09:43:49;5.90;;;2.40;;
31978;SDS011;18502;43.574;1.276;2022-10-22T09:46:17;6.82;;;2.83;;
31978;SDS011;18502;43.574;1.276;2022-10-22T09:48:48;5.32;;;2.22;;
31978;SDS011;18502;43.574;1.276;2022-10-22T09:54:17;6.85;;;2.00;;
31978;SDS011;18502;43.574;1.276;2022-10-22T09:56:47;7.18;;;2.45;;
31978;SDS011;18502;43.574;1.276;2022-10-22T09:59:28;6.25;;;2.30;;
31978;SDS011;18502;43.574;1.276;2022-10-22T10:02:00;5.07;;;2.13;;
31978;SDS011;18502;43.574;1.276;2022-10-22T10:04:32;6.75;;;2.35;;
31978;SDS011;18502;43.574;1.276;2022-10-22T10:07:11;8.02;;;2.72;;
31978;SDS011;18502;43.574;1.276;2022-10-22T10:09:46;8.00;;;2.70;;
31978;SDS011;18502;43.574;1.276;2022-10-22T10:33:32;5.13;;;2.08;;
31978;SDS011;18502;43.574;1.276;2022-10-22T10:36:17;8.65;;;2.10;;
31978;SDS011;18502;43.574;1.276;2022-10-22T10:41:25;3.83;;;1.95;;
31978;SDS011;18502;43.574;1.276;2022-10-22T10:46:42;4.70;;;2.53;;
31978;SDS011;18502;43.574;1.276;2022-10-22T10:49:25;7.82;;;2.20;;
31978;SDS011;18502;43.574;1.276;2022-10-22T10:54:57;7.32;;;1.65;;
31978;SDS011;18502;43.574;1.276;2022-10-22T10:57:37;2.55;;;1.30;;
31978;SDS011;18502;43.574;1.276;2022-10-22T11:00:23;2.30;;;1.35;;
31978;SDS011;18502;43.574;1.276;2022-10-22T11:05:54;3.55;;;1.58;;
31978;SDS011;18502;43.574;1.276;2022-10-22T11:08:25;5.47;;;1.60;;
31978;SDS011;18502;43.574;1.276;2022-10-22T11:10:58;6.30;;;1.35;;
31978;SDS011;18502;43.574;1.276;2022-10-22T11:13:32;7.93;;;2.00;;
31978;SDS011;18502;43.574;1.276;2022-10-22T11:19:02;7.03;;;1.60;;
31978;SDS011;18502;43.574;1.276;2022-10-22T11:21:41;5.45;;;1.60;;
31978;SDS011;18502;43.574;1.276;2022-10-22T11:24:31;7.57;;;2.30;;
31978;SDS011;18502;43.574;1.276;2022-10-22T11:27:03;9.45;;;2.17;;
31978;SDS011;18502;43.574;1.276;2022-10-22T11:29:42;10.48;;;2.45;;
31978;SDS011;18502;43.574;1.276;2022-10-22T11:32:14;7.25;;;2.95;;
31978;SDS011;18502;43.574;1.276;2022-10-22T11:34:49;12.63;;;3.15;;
31978;SDS011;18502;43.574;1.276;2022-10-22T11:37:18;11.75;;;3.65;;
31978;SDS011;18502;43.574;1.276;2022-10-22T11:40:00;11.75;;;3.47;;
31978;SDS011;18502;43.574;1.276;2022-10-22T11:42:36;7.95;;;2.70;;
31978;SDS011;18502;43.574;1.276;2022-10-22T11:55:53;10.13;;;3.65;;
31978;SDS011;18502;43.574;1.276;2022-10-22T11:58:41;9.25;;;3.47;;
31978;SDS011;18502;43.574;1.276;2022-10-22T12:03:38;10.43;;;3.55;;
31978;SDS011;18502;43.574;1.276;2022-10-22T12:11:44;10.48;;;3.58;;
31978;SDS011;18502;43.574;1.276;2022-10-22T12:17:14;11.05;;;3.35;;
31978;SDS011;18502;43.574;1.276;2022-10-22T12:19:42;9.85;;;2.92;;
31978;SDS011;18502;43.574;1.276;2022-10-22T12:24:40;9.93;;;3.38;;
31978;SDS011;18502;43.574;1.276;2022-10-22T12:29:47;10.63;;;2.60;;
31978;SDS011;18502;43.574;1.276;2022-10-22T12:32:14;13.90;;;3.47;;
31978;SDS011;18502;43.574;1.276;2022-10-22T12:34:47;11.82;;;4.30;;
31978;SDS011;18502;43.574;1.276;2022-10-22T12:37:14;11.70;;;3.38;;
31978;SDS011;18502;43.574;1.276;2022-10-22T12:39:41;12.00;;;3.20;;
31978;SDS011;18502;43.574;1.276;2022-10-22T12:42:11;10.07;;;2.80;;
31978;SDS011;18502;43.574;1.276;2022-10-22T12:44:44;13.98;;;3.70;;
31978;SDS011;18502;43.574;1.276;2022-10-22T12:47:14;7.25;;;2.60;;
31978;SDS011;18502;43.574;1.276;2022-10-22T12:49:42;15.07;;;4.05;;
31978;SDS011;18502;43.574;1.276;2022-10-22T12:52:12;10.32;;;2.88;;
31978;SDS011;18502;43.574;1.276;2022-10-22T12:54:43;13.52;;;3.47;;
31978;SDS011;18502;43.574;1.276;2022-10-22T12:59:38;7.45;;;2.80;;
31978;SDS011;18502;43.574;1.276;2022-10-22T13:02:14;8.05;;;2.63;;
31978;SDS011;18502;43.574;1.276;2022-10-22T13:05:03;7.07;;;3.15;;
31978;SDS011;18502;43.574;1.276;2022-10-22T13:08:10;11.02;;;3.38;;
31978;SDS011;18502;43.574;1.276;2022-10-22T13:10:47;7.60;;;2.63;;
31978;SDS011;18502;43.574;1.276;2022-10-22T13:13:31;10.40;;;2.45;;
31978;SDS011;18502;43.574;1.276;2022-10-22T13:18:48;10.20;;;2.85;;
31978;SDS011;18502;43.574;1.276;2022-10-22T13:23:51;8.05;;;2.45;;
31978;SDS011;18502;43.574;1.276;2022-10-22T13:26:21;9.73;;;2.55;;
31978;SDS011;18502;43.574;1.276;2022-10-22T13:28:54;7.50;;;2.13;;
31978;SDS011;18502;43.574;1.276;2022-10-22T13:31:25;12.60;;;3.13;;
31978;SDS011;18502;43.574;1.276;2022-10-22T13:33:54;7.25;;;2.03;;
31978;SDS011;18502;43.574;1.276;2022-10-22T13:36:21;7.47;;;2.65;;
31978;SDS011;18502;43.574;1.276;2022-10-22T13:38:48;10.82;;;2.53;;
31978;SDS011;18502;43.574;1.276;2022-10-22T13:41:27;8.73;;;2.75;;
31978;SDS011;18502;43.574;1.276;2022-10-22T13:43:57;7.35;;;2.53;;
31978;SDS011;18502;43.574;1.276;2022-10-22T13:46:24;6.75;;;2.65;;
31978;SDS011;18502;43.574;1.276;2022-10-22T13:48:51;5.03;;;1.83;;
31978;SDS011;18502;43.574;1.276;2022-10-22T13:51:20;8.45;;;2.60;;
31978;SDS011;18502;43.574;1.276;2022-10-22T13:53:48;5.55;;;2.30;;
31978;SDS011;18502;43.574;1.276;2022-10-22T13:58:43;5.30;;;1.80;;
31978;SDS011;18502;43.574;1.276;2022-10-22T14:01:22;5.32;;;1.70;;
31978;SDS011;18502;43.574;1.276;2022-10-22T14:03:51;5.47;;;2.05;;
31978;SDS011;18502;43.574;1.276;2022-10-22T14:06:19;6.70;;;1.85;;
31978;SDS011;18502;43.574;1.276;2022-10-22T14:08:56;8.30;;;2.78;;
31978;SDS011;18502;43.574;1.276;2022-10-22T14:11:35;8.25;;;2.45;;
31978;SDS011;18502;43.574;1.276;2022-10-22T14:14:01;8.45;;;2.20;;
31978;SDS011;18502;43.574;1.276;2022-10-22T14:16:29;6.88;;;2.53;;
31978;SDS011;18502;43.574;1.276;2022-10-22T14:18:57;9.90;;;2.45;;
31978;SDS011;18502;43.574;1.276;2022-10-22T14:21:24;5.43;;;1.85;;
31978;SDS011;18502;43.574;1.276;2022-10-22T14:23:49;5.55;;;1.80;;
31978;SDS011;18502;43.574;1.276;2022-10-22T14:26:23;3.97;;;1.73;;
31978;SDS011;18502;43.574;1.276;2022-10-22T14:28:53;5.30;;;2.10;;
31978;SDS011;18502;43.574;1.276;2022-10-22T14:31:18;6.03;;;2.60;;
31978;SDS011;18502;43.574;1.276;2022-10-22T14:33:45;7.10;;;1.63;;
31978;SDS011;18502;43.574;1.276;2022-10-22T14:36:11;8.75;;;2.03;;
31978;SDS011;18502;43.574;1.276;2022-10-22T14:38:37;6.78;;;2.28;;
31978;SDS011;18502;43.574;1.276;2022-10-22T14:41:04;6.25;;;1.75;;
31978;SDS011;18502;43.574;1.276;2022-10-22T14:43:53;3.83;;;1.92;;
31978;SDS011;18502;43.574;1.276;2022-10-22T14:46:23;4.63;;;1.50;;
31978;SDS011;18502;43.574;1.276;2022-10-22T14:48:49;3.72;;;1.80;;
31978;SDS011;18502;43.574;1.276;2022-10-22T14:51:16;6.00;;;2.50;;
31978;SDS011;18502;43.574;1.276;2022-10-22T14:53:43;5.35;;;2.00;;
31978;SDS011;18502;43.574;1.276;2022-10-22T14:56:10;3.03;;;1.77;;
31978;SDS011;18502;43.574;1.276;2022-10-22T14:58:40;5.72;;;1.95;;
31978;SDS011;18502;43.574;1.276;2022-10-22T15:01:06;7.18;;;2.03;;
31978;SDS011;18502;43.574;1.276;2022-10-22T15:03:34;7.70;;;2.17;;
31978;SDS011;18502;43.574;1.276;2022-10-22T15:06:00;8.30;;;2.38;;
31978;SDS011;18502;43.574;1.276;2022-10-22T15:08:26;9.32;;;2.47;;
31978;SDS011;18502;43.574;1.276;2022-10-22T15:13:28;6.57;;;2.65;;
31978;SDS011;18502;43.574;1.276;2022-10-22T15:15:55;7.20;;;2.90;;
31978;SDS011;18502;43.574;1.276;2022-10-22T15:18:21;4.85;;;2.10;;
31978;SDS011;18502;43.574;1.276;2022-10-22T15:20:57;6.10;;;2.00;;
31978;SDS011;18502;43.574;1.276;2022-10-22T15:23:24;10.70;;;2.17;;
31978;SDS011;18502;43.574;1.276;2022-10-22T15:25:50;5.22;;;1.70;;
31978;SDS011;18502;43.574;1.276;2022-10-22T15:28:16;5.68;;;2.08;;
31978;SDS011;18502;43.574;1.276;2022-10-22T15:30:42;6.05;;;1.65;;
31978;SDS011;18502;43.574;1.276;2022-10-22T15:33:07;5.93;;;2.03;;
31978;SDS011;18502;43.574;1.276;2022-10-22T15:35:33;8.20;;;2.00;;
31978;SDS011;18502;43.574;1.276;2022-10-22T15:37:59;8.02;;;2.63;;
31978;SDS011;18502;43.574;1.276;2022-10-22T15:40:24;8.23;;;2.53;;
31978;SDS011;18502;43.574;1.276;2022-10-22T15:42:50;8.02;;;2.30;;
31978;SDS011;18502;43.574;1.276;2022-10-22T15:45:16;7.30;;;2.70;;
31978;SDS011;18502;43.574;1.276;2022-10-22T15:47:45;6.78;;;2.35;;
31978;SDS011;18502;43.574;1.276;2022-10-22T15:50:11;5.63;;;2.28;;
31978;SDS011;18502;43.574;1.276;2022-10-22T15:52:37;13.15;;;2.60;;
31978;SDS011;18502;43.574;1.276;2022-10-22T15:55:02;8.40;;;3.05;;
31978;SDS011;18502;43.574;1.276;2022-10-22T15:57:31;10.35;;;2.60;;
31978;SDS011;18502;43.574;1.276;2022-10-22T15:59:56;5.35;;;2.28;;
31978;SDS011;18502;43.574;1.276;2022-10-22T16:02:22;9.52;;;3.08;;
31978;SDS011;18502;43.574;1.276;2022-10-22T16:04:48;10.20;;;3.30;;
31978;SDS011;18502;43.574;1.276;2022-10-22T16:07:14;11.20;;;3.10;;
31978;SDS011;18502;43.574;1.276;2022-10-22T16:09:40;9.45;;;2.75;;
31978;SDS011;18502;43.574;1.276;2022-10-22T16:12:05;11.00;;;3.50;;
31978;SDS011;18502;43.574;1.276;2022-10-22T16:14:31;7.47;;;2.78;;
31978;SDS011;18502;43.574;1.276;2022-10-22T16:16:57;8.25;;;3.08;;
31978;SDS011;18502;43.574;1.276;2022-10-22T16:19:23;9.38;;;3.35;;
31978;SDS011;18502;43.574;1.276;2022-10-22T16:21:50;9.85;;;3.38;;
31978;SDS011;18502;43.574;1.276;2022-10-22T16:24:17;6.82;;;3.28;;
31978;SDS011;18502;43.574;1.276;2022-10-22T16:26:43;7.65;;;3.05;;
31978;SDS011;18502;43.574;1.276;2022-10-22T16:29:09;10.75;;;3.60;;
31978;SDS011;18502;43.574;1.276;2022-10-22T16:31:36;14.73;;;3.92;;
31978;SDS011;18502;43.574;1.276;2022-10-22T16:34:03;11.25;;;4.18;;
31978;SDS011;18502;43.574;1.276;2022-10-22T16:36:29;9.77;;;3.53;;
31978;SDS011;18502;43.574;1.276;2022-10-22T16:38:55;11.88;;;3.95;;
31978;SDS011;18502;43.574;1.276;2022-10-22T16:41:21;7.75;;;3.88;;
31978;SDS011;18502;43.574;1.276;2022-10-22T16:43:49;8.90;;;3.67;;
31978;SDS011;18502;43.574;1.276;2022-10-22T16:46:19;13.85;;;4.78;;
31978;SDS011;18502;43.574;1.276;2022-10-22T16:48:49;10.40;;;3.55;;
31978;SDS011;18502;43.574;1.276;2022-10-22T16:51:18;17.35;;;4.13;;
31978;SDS011;18502;43.574;1.276;2022-10-22T16:53:45;13.88;;;4.65;;
31978;SDS011;18502;43.574;1.276;2022-10-22T16:56:11;10.90;;;4.03;;
31978;SDS011;18502;43.574;1.276;2022-10-22T16:58:41;14.93;;;4.70;;
31978;SDS011;18502;43.574;1.276;2022-10-22T17:01:09;12.82;;;4.55;;
31978;SDS011;18502;43.574;1.276;2022-10-22T17:03:35;15.38;;;5.03;;
31978;SDS011;18502;43.574;1.276;2022-10-22T17:06:01;12.25;;;4.20;;
31978;SDS011;18502;43.574;1.276;2022-10-22T17:08:28;12.57;;;4.57;;